Time;durP1;ratioP1;P1;durP2;ratioP2;P2;SDS_P1;SDS_P2;PMS_P1;PMS_P2;Temp;Humidity;BMP_temperature;BMP_pressure;BME280_temperature;BME280_humidity;BME280_pressure;Samples;Min_cycle;Max_cycle;Signal;HPM_P1;HPM_P2
2022/11/11 00:01:54;;;;;;;50.47;20.77;;;;;;;;;;5054767;28;20041;-43
2022/11/11 00:04:19;;;;;;;56.70;22.55;;;;;;;;;;5055232;28;20017;-43
2022/11/11 00:06:45;;;;;;;54.53;22.65;;;;;;;;;;5054486;28;20448;-43
2022/11/11 00:09:11;;;;;;;52.45;22.33;;;;;;;;;;5054496;28;20052;-41
2022/11/11 00:11:36;;;;;;;58.22;21.50;;;;;;;;;;5054813;28;20059;-44
2022/11/11 00:14:01;;;;;;;53.58;22.83;;;;;;;;;;5054864;28;20021;-42
2022/11/11 00:25:04;;;;;;;55.88;21.23;;;;;;;;;;5054773;28;20513;-41
2022/11/11 00:27:23;;;;;;;50.33;20.83;;;;;;;;;;5073375;28;20042;-45
2022/11/11 00:29:49;;;;;;;60.80;21.58;;;;;;;;;;5074135;28;20448;-43
2022/11/11 00:32:25;;;;;;;51.33;20.67;;;;;;;;;;5074513;28;20074;-41
2022/11/11 00:37:36;;;;;;;48.92;20.45;;;;;;;;;;5073802;28;20027;-43
2022/11/11 00:40:02;;;;;;;53.28;21.80;;;;;;;;;;5073990;28;20036;-44
2022/11/11 00:42:27;;;;;;;55.20;21.95;;;;;;;;;;5074356;28;20021;-43
2022/11/11 00:44:52;;;;;;;59.10;23.05;;;;;;;;;;5074544;28;20422;-43
2022/11/11 00:52:47;;;;;;;58.22;22.38;;;;;;;;;;5074179;28;20024;-43
2022/11/11 00:55:13;;;;;;;49.28;21.35;;;;;;;;;;5074153;28;20021;-42
2022/11/11 00:57:38;;;;;;;56.97;21.20;;;;;;;;;;5073227;28;20021;-41
2022/11/11 01:00:04;;;;;;;56.90;23.15;;;;;;;;;;5073488;28;20033;-45
2022/11/11 01:02:29;;;;;;;55.10;22.35;;;;;;;;;;5073877;28;20021;-41
2022/11/11 01:04:55;;;;;;;52.58;22.13;;;;;;;;;;5074243;28;20020;-45
2022/11/11 01:07:20;;;;;;;53.25;22.88;;;;;;;;;;5073166;28;20470;-42
2022/11/11 01:09:45;;;;;;;53.78;21.92;;;;;;;;;;5073768;28;20020;-43
2022/11/11 01:12:10;;;;;;;56.92;22.23;;;;;;;;;;5073732;28;20020;-43
2022/11/11 01:14:36;;;;;;;54.75;22.75;;;;;;;;;;5073839;28;20025;-41
2022/11/11 01:17:03;;;;;;;58.67;22.60;;;;;;;;;;5073416;28;20028;-44
2022/11/11 01:19:28;;;;;;;48.45;22.48;;;;;;;;;;5053783;28;20071;-43
2022/11/11 01:21:54;;;;;;;57.97;23.48;;;;;;;;;;5053925;28;20478;-44
2022/11/11 01:24:19;;;;;;;54.13;21.87;;;;;;;;;;5053528;28;20032;-43
2022/11/11 01:26:44;;;;;;;65.13;23.75;;;;;;;;;;5059926;28;20237;-40
2022/11/11 01:29:09;;;;;;;50.53;23.23;;;;;;;;;;5072620;28;20146;-42
2022/11/11 01:31:34;;;;;;;55.63;22.02;;;;;;;;;;5071962;28;20271;-43
2022/11/11 01:34:00;;;;;;;50.93;23.37;;;;;;;;;;5073513;28;20492;-40
2022/11/11 01:36:26;;;;;;;63.63;23.20;;;;;;;;;;5073017;28;20727;-39
2022/11/11 01:38:52;;;;;;;55.28;23.42;;;;;;;;;;5071484;28;20047;-42
2022/11/11 01:41:31;;;;;;;55.33;22.50;;;;;;;;;;5073207;28;20024;-42
2022/11/11 01:43:56;;;;;;;56.45;23.35;;;;;;;;;;5072556;28;20023;-43
2022/11/11 01:46:40;;;;;;;50.83;21.85;;;;;;;;;;5072940;28;20044;-42
2022/11/11 01:49:18;;;;;;;57.42;23.48;;;;;;;;;;5072291;28;20021;-44
2022/11/11 01:51:52;;;;;;;53.13;22.77;;;;;;;;;;5073114;28;20081;-43
2022/11/11 01:54:20;;;;;;;46.50;20.77;;;;;;;;;;5072720;28;20074;-43
2022/11/11 01:56:46;;;;;;;51.80;22.38;;;;;;;;;;5072625;28;20074;-41
2022/11/11 01:59:14;;;;;;;49.00;21.15;;;;;;;;;;5072141;28;20028;-41
2022/11/11 02:01:40;;;;;;;43.58;20.10;;;;;;;;;;5072982;28;20017;-41
2022/11/11 02:06:51;;;;;;;44.47;21.48;;;;;;;;;;5072309;28;20022;-42
2022/11/11 02:09:16;;;;;;;50.05;20.45;;;;;;;;;;5072581;28;20123;-41
2022/11/11 02:14:34;;;;;;;46.47;19.80;;;;;;;;;;5072584;28;20031;-39
2022/11/11 02:17:01;;;;;;;50.90;21.63;;;;;;;;;;5072151;28;20017;-42
2022/11/11 02:19:55;;;;;;;46.30;20.55;;;;;;;;;;5070169;28;20096;-40
2022/11/11 02:22:43;;;;;;;47.42;19.83;;;;;;;;;;5067741;28;20032;-42
2022/11/11 02:25:10;;;;;;;46.42;20.52;;;;;;;;;;5061752;28;20397;-40
2022/11/11 02:27:37;;;;;;;46.22;20.45;;;;;;;;;;5071473;28;20092;-42
2022/11/11 02:30:04;;;;;;;49.58;22.23;;;;;;;;;;5072214;28;20604;-37
2022/11/11 02:32:29;;;;;;;46.75;19.92;;;;;;;;;;5071110;28;20482;-42
2022/11/11 02:34:54;;;;;;;46.28;19.92;;;;;;;;;;5072601;28;20021;-42
2022/11/11 02:37:22;;;;;;;53.85;20.92;;;;;;;;;;5071539;28;20472;-41
2022/11/11 02:39:49;;;;;;;44.95;20.13;;;;;;;;;;5071865;28;20475;-41
2022/11/11 02:42:15;;;;;;;49.15;22.33;;;;;;;;;;5072146;28;20467;-43
2022/11/11 02:44:40;;;;;;;54.28;22.27;;;;;;;;;;5072292;28;20056;-42
2022/11/11 02:47:05;;;;;;;47.08;22.17;;;;;;;;;;5071847;28;20020;-44
2022/11/11 02:49:31;;;;;;;47.95;22.00;;;;;;;;;;5071921;28;20066;-40
2022/11/11 02:51:56;;;;;;;47.13;21.23;;;;;;;;;;5072269;28;20021;-42
2022/11/11 02:54:21;;;;;;;45.95;19.73;;;;;;;;;;5071947;28;20020;-41
2022/11/11 02:57:29;;;;;;;50.28;22.20;;;;;;;;;;5071622;28;20019;-44
2022/11/11 02:59:36;;;;;;;49.15;21.60;;;;;;;;;;5068573;28;20040;-42
2022/11/11 03:02:01;;;;;;;47.22;22.05;;;;;;;;;;5072299;28;20036;-41
2022/11/11 03:04:26;;;;;;;55.65;21.02;;;;;;;;;;5071921;28;20020;-42
2022/11/11 03:06:51;;;;;;;52.07;22.20;;;;;;;;;;5071530;28;20017;-42
2022/11/11 03:09:17;;;;;;;46.43;20.67;;;;;;;;;;5071242;28;21078;-43
2022/11/11 03:11:42;;;;;;;46.85;20.88;;;;;;;;;;5072134;28;20592;-41
2022/11/11 03:14:07;;;;;;;46.22;20.90;;;;;;;;;;5072176;28;20082;-41
2022/11/11 03:19:17;;;;;;;44.65;20.17;;;;;;;;;;5053377;28;20442;-43
2022/11/11 03:21:42;;;;;;;45.00;19.50;;;;;;;;;;5051752;28;20021;-41
2022/11/11 03:24:07;;;;;;;49.53;21.50;;;;;;;;;;5051487;28;20017;-41
2022/11/11 03:26:32;;;;;;;42.78;19.27;;;;;;;;;;5051716;28;20713;-43
2022/11/11 03:28:58;;;;;;;43.22;19.45;;;;;;;;;;5051194;28;20025;-44
2022/11/11 03:31:23;;;;;;;46.67;21.20;;;;;;;;;;5051614;28;20543;-43
2022/11/11 03:33:48;;;;;;;47.88;21.35;;;;;;;;;;5051824;28;20063;-37
2022/11/11 03:36:13;;;;;;;44.15;20.80;;;;;;;;;;5051213;28;20025;-43
2022/11/11 03:38:39;;;;;;;47.95;21.13;;;;;;;;;;5050248;28;20559;-41
2022/11/11 03:41:04;;;;;;;49.42;20.77;;;;;;;;;;5051744;28;20457;-41
2022/11/11 03:43:30;;;;;;;46.38;19.73;;;;;;;;;;5051780;28;20372;-40
2022/11/11 03:45:56;;;;;;;53.20;20.17;;;;;;;;;;5051408;28;20060;-43
2022/11/11 03:48:22;;;;;;;49.00;19.70;;;;;;;;;;5050708;28;20096;-41
2022/11/11 03:50:48;;;;;;;54.20;20.33;;;;;;;;;;5051474;28;20051;-42
2022/11/11 03:53:14;;;;;;;40.10;18.42;;;;;;;;;;5051233;28;20025;-41
2022/11/11 03:55:39;;;;;;;50.25;20.80;;;;;;;;;;5051529;28;20075;-41
2022/11/11 03:58:05;;;;;;;39.83;19.13;;;;;;;;;;5050446;28;20024;-39
2022/11/11 04:00:30;;;;;;;42.35;18.65;;;;;;;;;;5051030;28;20064;-42
2022/11/11 04:11:37;;;;;;;40.38;19.80;;;;;;;;;;5054867;28;20099;-41
2022/11/11 04:16:50;;;;;;;44.38;17.60;;;;;;;;;;5054531;28;20082;-43
2022/11/11 04:21:59;;;;;;;43.38;18.48;;;;;;;;;;5074570;28;20059;-41
2022/11/11 04:27:09;;;;;;;39.40;17.27;;;;;;;;;;5074144;28;20040;-44
2022/11/11 04:29:35;;;;;;;42.35;18.17;;;;;;;;;;5074224;28;20078;-42
2022/11/11 04:34:46;;;;;;;43.03;19.23;;;;;;;;;;5074313;28;20055;-41
2022/11/11 04:37:11;;;;;;;45.30;18.63;;;;;;;;;;5074074;28;20016;-40
2022/11/11 04:42:21;;;;;;;42.42;18.55;;;;;;;;;;5074464;28;20084;-44
2022/11/11 04:47:30;;;;;;;45.47;19.00;;;;;;;;;;5073364;28;20051;-42
2022/11/11 04:49:55;;;;;;;38.13;18.38;;;;;;;;;;5074269;28;20452;-43
2022/11/11 04:52:26;;;;;;;42.60;17.77;;;;;;;;;;5074266;28;20044;-42
2022/11/11 04:57:46;;;;;;;48.63;17.73;;;;;;;;;;5073396;28;20379;-42
2022/11/11 05:00:12;;;;;;;47.67;18.55;;;;;;;;;;5073512;28;20043;-42
2022/11/11 05:05:23;;;;;;;47.42;16.33;;;;;;;;;;5074016;28;20027;-41
2022/11/11 05:10:32;;;;;;;43.10;16.13;;;;;;;;;;5073727;28;20043;-44
2022/11/11 05:21:19;;;;;;;42.88;17.17;;;;;;;;;;5073615;28;20017;-45
2022/11/11 05:21:20;;;;;;;50.00;17.65;;;;;;;;;;5053604;28;20044;-43
2022/11/11 05:26:29;;;;;;;46.53;18.30;;;;;;;;;;5052744;28;20394;-41
2022/11/11 05:28:54;;;;;;;41.28;17.25;;;;;;;;;;5053002;28;20017;-44
2022/11/11 05:31:19;;;;;;;51.17;19.77;;;;;;;;;;5052972;28;20028;-42
2022/11/11 05:33:44;;;;;;;49.10;18.60;;;;;;;;;;5053254;28;20021;-43
2022/11/11 05:36:10;;;;;;;49.30;18.60;;;;;;;;;;5052744;28;20024;-42
2022/11/11 05:38:35;;;;;;;45.22;19.92;;;;;;;;;;5052412;28;20017;-43
2022/11/11 05:41:00;;;;;;;42.08;18.42;;;;;;;;;;5052814;28;20032;-44
2022/11/11 05:43:25;;;;;;;40.25;17.42;;;;;;;;;;5052655;28;20475;-41
2022/11/11 05:45:50;;;;;;;44.28;17.65;;;;;;;;;;5052290;28;20468;-43
2022/11/11 05:48:16;;;;;;;34.28;15.63;;;;;;;;;;5052203;28;20449;-40
2022/11/11 05:50:41;;;;;;;35.38;17.55;;;;;;;;;;5052787;28;20043;-41
2022/11/11 05:53:07;;;;;;;36.00;17.08;;;;;;;;;;5052959;28;20021;-43
2022/11/11 05:55:32;;;;;;;36.95;16.05;;;;;;;;;;5052687;28;20033;-42
2022/11/11 05:57:57;;;;;;;37.88;16.52;;;;;;;;;;5051728;28;20070;-43
2022/11/11 06:00:22;;;;;;;37.33;15.75;;;;;;;;;;5052164;28;20151;-41
2022/11/11 06:02:48;;;;;;;35.00;16.60;;;;;;;;;;5052849;28;20024;-43
2022/11/11 06:05:13;;;;;;;38.78;18.75;;;;;;;;;;5052866;28;20021;-41
2022/11/11 06:07:39;;;;;;;32.38;16.05;;;;;;;;;;5051914;28;20013;-42
2022/11/11 06:13:04;;;;;;;34.22;16.48;;;;;;;;;;5052574;28;20070;-42
2022/11/11 06:15:33;;;;;;;37.75;18.05;;;;;;;;;;5052518;28;20047;-44
2022/11/11 06:17:58;;;;;;;36.83;17.42;;;;;;;;;;5058417;28;20352;-44
2022/11/11 06:20:24;;;;;;;34.38;18.40;;;;;;;;;;5071892;28;20486;-43
2022/11/11 06:22:55;;;;;;;32.15;17.48;;;;;;;;;;5072467;28;20020;-43
2022/11/11 06:28:08;;;;;;;30.38;16.40;;;;;;;;;;5071678;28;20483;-43
2022/11/11 06:30:34;;;;;;;29.00;15.32;;;;;;;;;;5072022;28;20108;-44
2022/11/11 06:32:59;;;;;;;34.78;17.00;;;;;;;;;;5072148;28;20028;-42
2022/11/11 06:35:24;;;;;;;33.80;17.65;;;;;;;;;;5072013;28;20025;-43
2022/11/11 06:37:49;;;;;;;42.10;18.85;;;;;;;;;;5058379;28;20051;-44
2022/11/11 06:40:14;;;;;;;47.38;18.95;;;;;;;;;;5063690;28;20487;-44
2022/11/11 06:42:40;;;;;;;46.95;20.55;;;;;;;;;;5071135;28;20392;-44
2022/11/11 06:45:05;;;;;;;51.03;21.35;;;;;;;;;;5069381;28;20047;-42
2022/11/11 06:47:31;;;;;;;61.22;22.92;;;;;;;;;;5070365;28;20052;-42
2022/11/11 06:49:56;;;;;;;50.85;22.00;;;;;;;;;;5061820;28;20025;-46
2022/11/11 06:52:21;;;;;;;42.70;19.88;;;;;;;;;;5059955;28;20167;-46
2022/11/11 06:54:46;;;;;;;47.22;21.67;;;;;;;;;;5054002;28;20075;-44
2022/11/11 06:57:12;;;;;;;42.40;20.25;;;;;;;;;;5062986;28;20032;-41
2022/11/11 06:59:37;;;;;;;46.65;21.40;;;;;;;;;;5061494;28;20028;-40
2022/11/11 07:02:02;;;;;;;66.35;29.08;;;;;;;;;;5058969;28;20028;-45
2022/11/11 07:04:28;;;;;;;60.63;26.27;;;;;;;;;;5064056;28;20028;-44
2022/11/11 07:06:53;;;;;;;72.93;25.60;;;;;;;;;;5065401;28;20021;-46
2022/11/11 07:09:18;;;;;;;53.33;21.15;;;;;;;;;;5060686;28;20027;-43
2022/11/11 07:11:44;;;;;;;47.83;21.08;;;;;;;;;;5056868;28;20113;-43
2022/11/11 07:14:09;;;;;;;42.65;20.67;;;;;;;;;;5062060;28;20063;-45
2022/11/11 07:16:34;;;;;;;47.70;20.17;;;;;;;;;;5052824;28;20035;-45
2022/11/11 07:19:00;;;;;;;36.17;19.05;;;;;;;;;;5058797;28;20033;-46
2022/11/11 07:21:25;;;;;;;33.33;17.00;;;;;;;;;;5059349;28;20013;-45
2022/11/11 07:23:50;;;;;;;33.30;17.35;;;;;;;;;;5050542;28;20074;-48
2022/11/11 07:26:15;;;;;;;34.80;17.25;;;;;;;;;;5051383;28;20033;-45
2022/11/11 07:28:41;;;;;;;43.38;22.15;;;;;;;;;;5064677;28;20047;-44
2022/11/11 07:31:06;;;;;;;45.42;21.85;;;;;;;;;;5053958;28;20036;-43
2022/11/11 07:33:31;;;;;;;44.88;22.42;;;;;;;;;;5055793;28;20107;-47
2022/11/11 07:35:57;;;;;;;45.15;22.95;;;;;;;;;;5061001;28;20024;-42
2022/11/11 07:38:22;;;;;;;46.28;22.08;;;;;;;;;;5057937;28;20051;-42
2022/11/11 07:40:47;;;;;;;44.40;21.83;;;;;;;;;;5058461;28;20071;-42
2022/11/11 07:43:13;;;;;;;41.33;20.77;;;;;;;;;;5052959;28;20120;-43
2022/11/11 07:45:38;;;;;;;42.28;20.85;;;;;;;;;;5055555;28;20056;-46
2022/11/11 07:48:03;;;;;;;39.53;20.30;;;;;;;;;;5066454;28;20024;-44
2022/11/11 07:50:29;;;;;;;45.60;20.63;;;;;;;;;;5057627;28;20032;-42
2022/11/11 07:52:54;;;;;;;37.00;18.35;;;;;;;;;;5062326;28;20024;-40
2022/11/11 07:55:20;;;;;;;34.55;17.73;;;;;;;;;;5065338;28;20024;-43
2022/11/11 07:57:45;;;;;;;31.83;17.83;;;;;;;;;;5070838;28;20025;-41
2022/11/11 08:00:12;;;;;;;40.65;20.65;;;;;;;;;;5058820;28;20507;-42
2022/11/11 08:02:37;;;;;;;35.45;18.50;;;;;;;;;;5059150;28;20021;-43
2022/11/11 08:05:02;;;;;;;36.08;17.85;;;;;;;;;;5062484;28;20038;-39
2022/11/11 08:07:28;;;;;;;41.13;19.92;;;;;;;;;;5064260;28;20027;-44
2022/11/11 08:09:53;;;;;;;37.88;19.52;;;;;;;;;;5069900;28;20021;-44
2022/11/11 08:15:02;;;;;;;32.03;15.93;;;;;;;;;;5057257;28;20078;-43
2022/11/11 08:17:28;;;;;;;31.23;16.23;;;;;;;;;;5057897;28;20017;-42
2022/11/11 08:19:53;;;;;;;26.40;14.23;;;;;;;;;;5070434;28;20545;-42
2022/11/11 08:22:18;;;;;;;30.55;16.33;;;;;;;;;;5071491;28;20272;-44
2022/11/11 08:24:44;;;;;;;22.45;12.95;;;;;;;;;;5068672;28;20114;-45
2022/11/11 08:27:09;;;;;;;25.80;14.90;;;;;;;;;;5068266;28;20020;-41
2022/11/11 08:29:35;;;;;;;26.08;14.70;;;;;;;;;;5060448;28;20147;-41
2022/11/11 08:32:00;;;;;;;28.50;15.10;;;;;;;;;;5063629;28;20086;-40
2022/11/11 08:34:26;;;;;;;27.40;15.25;;;;;;;;;;5057696;28;20562;-43
2022/11/11 08:36:51;;;;;;;25.73;14.98;;;;;;;;;;5064148;28;20035;-44
2022/11/11 08:39:16;;;;;;;23.35;14.65;;;;;;;;;;5057120;28;20032;-44
2022/11/11 08:41:41;;;;;;;18.27;11.40;;;;;;;;;;5066199;28;20056;-44
2022/11/11 08:44:08;;;;;;;25.33;14.15;;;;;;;;;;5063843;28;20021;-43
2022/11/11 08:46:33;;;;;;;23.23;12.98;;;;;;;;;;5054378;28;20035;-43
2022/11/11 08:48:58;;;;;;;27.05;13.30;;;;;;;;;;5057147;28;20021;-44
2022/11/11 08:51:24;;;;;;;18.90;11.57;;;;;;;;;;5051531;28;20051;-41
2022/11/11 08:53:49;;;;;;;20.67;11.43;;;;;;;;;;5055713;28;20048;-44
2022/11/11 08:56:14;;;;;;;22.15;12.63;;;;;;;;;;5058991;28;20025;-44
2022/11/11 08:58:40;;;;;;;23.73;12.63;;;;;;;;;;5057417;28;20136;-44
2022/11/11 09:01:09;;;;;;;23.05;12.43;;;;;;;;;;5060222;28;20040;-42
2022/11/11 09:03:34;;;;;;;;;;;;;;;;;;5059590;28;20430;-44
2022/11/11 09:06:00;;;;;;;22.33;12.47;;;;;;;;;;5056125;28;20015;-45
2022/11/11 09:08:25;;;;;;;22.15;13.02;;;;;;;;;;5062173;28;20028;-45
2022/11/11 09:10:50;;;;;;;25.00;14.13;;;;;;;;;;5068137;28;20067;-43
2022/11/11 09:13:15;;;;;;;27.40;14.02;;;;;;;;;;5056652;28;20269;-44
2022/11/11 09:15:41;;;;;;;24.25;14.13;;;;;;;;;;5063966;28;20024;-43
2022/11/11 09:18:07;;;;;;;24.65;13.63;;;;;;;;;;5058071;28;20025;-43
2022/11/11 09:20:33;;;;;;;23.77;14.02;;;;;;;;;;5064436;28;20032;-43
2022/11/11 09:22:58;;;;;;;24.13;13.70;;;;;;;;;;5055628;28;20031;-42
2022/11/11 09:25:24;;;;;;;24.67;14.07;;;;;;;;;;5056757;28;20017;-42
2022/11/11 09:27:54;;;;;;;24.02;14.77;;;;;;;;;;5058155;28;20031;-41
2022/11/11 09:30:20;;;;;;;25.65;14.93;;;;;;;;;;5056163;28;20028;-43
2022/11/11 09:32:45;;;;;;;30.90;15.02;;;;;;;;;;5058522;28;20456;-45
2022/11/11 09:35:10;;;;;;;30.00;15.18;;;;;;;;;;5066227;28;20032;-42
2022/11/11 09:37:36;;;;;;;27.77;15.70;;;;;;;;;;5059679;28;20021;-43
2022/11/11 09:40:01;;;;;;;25.98;14.80;;;;;;;;;;5052720;28;20029;-41
2022/11/11 09:42:36;;;;;;;30.27;16.33;;;;;;;;;;5054617;28;20021;-39
2022/11/11 09:45:04;;;;;;;26.83;15.48;;;;;;;;;;5056035;28;20128;-42
2022/11/11 09:47:47;;;;;;;25.98;14.80;;;;;;;;;;5053390;28;20021;-42
2022/11/11 09:50:19;;;;;;;26.45;14.70;;;;;;;;;;5062465;28;20098;-44
2022/11/11 09:53:03;;;;;;;23.60;13.02;;;;;;;;;;5059947;28;20471;-42
2022/11/11 09:55:35;;;;;;;31.25;14.38;;;;;;;;;;5060861;28;20032;-41
2022/11/11 09:58:04;;;;;;;26.17;15.05;;;;;;;;;;5063135;28;21397;-39
2022/11/11 10:00:29;;;;;;;;;;;;;;;;;;5062030;28;20037;-44
2022/11/11 10:02:55;;;;;;;33.57;16.60;;;;;;;;;;5052287;28;19908;-44
2022/11/11 10:05:23;;;;;;;30.80;16.92;;;;;;;;;;5057052;28;20036;-43
2022/11/11 10:07:52;;;;;;;32.03;16.45;;;;;;;;;;5057015;28;20032;-39
2022/11/11 10:10:20;;;;;;;28.23;15.88;;;;;;;;;;5061011;28;20024;-42
2022/11/11 10:12:49;;;;;;;30.52;17.38;;;;;;;;;;5054952;28;20487;-44
2022/11/11 10:15:15;;;;;;;31.15;16.58;;;;;;;;;;5058076;28;20033;-42
2022/11/11 10:17:59;;;;;;;29.30;16.52;;;;;;;;;;5052379;28;20112;-42
2022/11/11 10:20:27;;;;;;;29.90;16.30;;;;;;;;;;5054751;28;20068;-44
2022/11/11 10:22:57;;;;;;;31.98;16.92;;;;;;;;;;5058880;28;20460;-43
2022/11/11 10:25:25;;;;;;;29.17;17.35;;;;;;;;;;5051614;28;20032;-42
2022/11/11 10:27:53;;;;;;;32.35;18.02;;;;;;;;;;5063771;28;20017;-42
2022/11/11 10:30:21;;;;;;;30.75;18.08;;;;;;;;;;5051435;28;20108;-39
2022/11/11 10:32:52;;;;;;;29.77;18.45;;;;;;;;;;5055760;28;20087;-43
2022/11/11 10:35:19;;;;;;;32.03;17.67;;;;;;;;;;5053098;28;20534;-41
2022/11/11 10:37:44;;;;;;;33.67;18.50;;;;;;;;;;5055320;28;20546;-37
2022/11/11 10:40:26;;;;;;;34.33;17.75;;;;;;;;;;5069556;28;20052;-42
2022/11/11 10:42:51;;;;;;;34.03;18.15;;;;;;;;;;5059968;28;20400;-44
2022/11/11 10:45:26;;;;;;;33.00;18.23;;;;;;;;;;5052144;28;20052;-42
2022/11/11 10:47:51;;;;;;;29.40;16.25;;;;;;;;;;5052061;28;20533;-44
2022/11/11 10:50:23;;;;;;;30.03;17.03;;;;;;;;;;5055942;28;20055;-39
2022/11/11 10:53:00;;;;;;;29.45;17.23;;;;;;;;;;5051192;28;20273;-40
2022/11/11 10:55:33;;;;;;;31.23;17.05;;;;;;;;;;5058762;28;20159;-44
2022/11/11 10:58:03;;;;;;;34.25;17.70;;;;;;;;;;5058296;28;20036;-39
2022/11/11 11:00:31;;;;;;;32.70;16.23;;;;;;;;;;5073830;28;20123;-39
2022/11/11 11:03:03;;;;;;;32.85;16.98;;;;;;;;;;5052465;28;20021;-42
2022/11/11 11:05:28;;;;;;;34.53;17.45;;;;;;;;;;5071443;28;20021;-41
2022/11/11 11:08:01;;;;;;;31.70;16.90;;;;;;;;;;5065063;28;20016;-43
2022/11/11 11:10:33;;;;;;;65.35;30.90;;;;;;;;;;5068727;28;20324;-42
2022/11/11 11:13:01;;;;;;;70.13;33.70;;;;;;;;;;5070185;28;20041;-44
2022/11/11 11:15:27;;;;;;;35.53;16.52;;;;;;;;;;5068846;28;20039;-40
2022/11/11 11:17:57;;;;;;;181.65;57.15;;;;;;;;;;5063851;28;20091;-41
2022/11/11 11:20:23;;;;;;;693.83;289.50;;;;;;;;;;5063290;28;20141;-38
2022/11/11 11:22:52;;;;;;;30.70;13.93;;;;;;;;;;5057502;28;20052;-42
2022/11/11 11:25:19;;;;;;;208.57;97.05;;;;;;;;;;5064797;28;20124;-40
2022/11/11 11:27:44;;;;;;;296.00;121.43;;;;;;;;;;5057240;28;20017;-42
2022/11/11 11:30:11;;;;;;;28.55;14.45;;;;;;;;;;5067558;28;20111;-42
2022/11/11 11:32:37;;;;;;;24.58;12.35;;;;;;;;;;5086332;28;20028;-41
2022/11/11 11:35:03;;;;;;;73.68;52.72;;;;;;;;;;5056010;28;20559;-41
2022/11/11 11:37:28;;;;;;;641.95;282.17;;;;;;;;;;5058059;28;20029;-43
2022/11/11 11:40:04;;;;;;;657.40;278.75;;;;;;;;;;5060116;28;20434;-42
2022/11/11 11:42:34;;;;;;;710.83;261.48;;;;;;;;;;5059869;28;20042;-44
2022/11/11 11:45:14;;;;;;;695.85;261.88;;;;;;;;;;5061158;28;20091;-40
2022/11/11 11:47:39;;;;;;;692.13;254.43;;;;;;;;;;5061591;28;20041;-41
2022/11/11 11:50:28;;;;;;;713.85;246.27;;;;;;;;;;5061434;28;20459;-42
2022/11/11 11:53:05;;;;;;;718.00;238.55;;;;;;;;;;5045085;28;20028;-40
2022/11/11 11:55:32;;;;;;;725.08;246.75;;;;;;;;;;5062099;28;20031;-45
2022/11/11 11:58:16;;;;;;;722.47;256.65;;;;;;;;;;5069430;28;20119;-42
2022/11/11 12:00:48;;;;;;;713.20;251.15;;;;;;;;;;5071726;28;20032;-44
2022/11/11 12:03:40;;;;;;;713.30;256.55;;;;;;;;;;5070897;28;20048;-42
2022/11/11 12:06:11;;;;;;;731.67;266.10;;;;;;;;;;5070357;28;20077;-45
2022/11/11 12:08:55;;;;;;;720.25;270.40;;;;;;;;;;5065233;28;20024;-43
2022/11/11 12:11:41;;;;;;;715.72;273.35;;;;;;;;;;5057699;28;20028;-44
2022/11/11 12:14:25;;;;;;;703.42;276.33;;;;;;;;;;5052758;28;20038;-44
2022/11/11 12:17:01;;;;;;;731.83;282.40;;;;;;;;;;5055578;28;20132;-46
2022/11/11 12:19:46;;;;;;;718.90;291.45;;;;;;;;;;5060490;28;20048;-44
2022/11/11 12:22:23;;;;;;;732.22;295.15;;;;;;;;;;5051019;28;20566;-44
2022/11/11 12:24:51;;;;;;;660.28;303.80;;;;;;;;;;5057725;28;20063;-44
2022/11/11 12:27:30;;;;;;;726.28;295.42;;;;;;;;;;5061730;28;20536;-44
2022/11/11 12:30:14;;;;;;;716.85;297.50;;;;;;;;;;5063932;28;20475;-43
2022/11/11 12:32:54;;;;;;;641.80;304.13;;;;;;;;;;5054181;28;20036;-44
2022/11/11 12:35:41;;;;;;;678.83;311.65;;;;;;;;;;5059874;28;20078;-44
2022/11/11 12:38:31;;;;;;;532.58;303.55;;;;;;;;;;5063942;28;20499;-41
2022/11/11 12:41:15;;;;;;;567.73;296.83;;;;;;;;;;5063422;28;20060;-45
2022/11/11 12:43:46;;;;;;;587.17;297.48;;;;;;;;;;5054174;28;20264;-39
2022/11/11 12:46:20;;;;;;;555.40;292.90;;;;;;;;;;5077630;28;20059;-41
2022/11/11 12:49:11;;;;;;;609.42;298.33;;;;;;;;;;5067707;28;20379;-43
2022/11/11 12:51:42;;;;;;;649.72;291.80;;;;;;;;;;5054554;28;20047;-43
2022/11/11 12:54:14;;;;;;;621.63;296.65;;;;;;;;;;5063722;28;20063;-42
2022/11/11 12:56:58;;;;;;;585.50;289.48;;;;;;;;;;5057655;28;20029;-39
2022/11/11 13:00:01;;;;;;;583.90;291.25;;;;;;;;;;5061667;28;20044;-38
2022/11/11 13:02:29;;;;;;;546.97;279.55;;;;;;;;;;5040645;28;20024;-40
2022/11/11 13:05:15;;;;;;;562.97;285.60;;;;;;;;;;5049275;28;20029;-37
2022/11/11 13:07:58;;;;;;;711.58;277.05;;;;;;;;;;5037493;28;20029;-42
2022/11/11 13:10:42;;;;;;;684.05;273.58;;;;;;;;;;5057840;28;20033;-41
2022/11/11 13:13:26;;;;;;;721.08;256.42;;;;;;;;;;5062577;28;20020;-42
2022/11/11 13:15:51;;;;;;;681.85;266.45;;;;;;;;;;5057790;28;20025;-40
2022/11/11 13:18:25;;;;;;;649.88;261.58;;;;;;;;;;5058171;28;20036;-43
2022/11/11 13:20:54;;;;;;;553.45;252.82;;;;;;;;;;5079091;28;20040;-41
2022/11/11 13:23:19;;;;;;;;;;;;;;;;;;5067039;28;20028;-41
2022/11/11 13:25:47;;;;;;;664.23;248.83;;;;;;;;;;5054872;28;19908;-39
2022/11/11 13:28:18;;;;;;;700.50;270.00;;;;;;;;;;5057989;28;20461;-43
2022/11/11 13:30:55;;;;;;;697.83;256.65;;;;;;;;;;5063711;28;20064;-39
2022/11/11 13:33:23;;;;;;;695.58;247.30;;;;;;;;;;5061852;28;20024;-41
2022/11/11 13:35:59;;;;;;;711.20;262.90;;;;;;;;;;5058904;28;20024;-44
2022/11/11 13:38:34;;;;;;;781.50;490.73;;;;;;;;;;5055037;28;20112;-43
2022/11/11 13:41:02;;;;;;;714.85;284.90;;;;;;;;;;5060015;28;20024;-42
2022/11/11 13:43:30;;;;;;;716.05;268.13;;;;;;;;;;5055133;28;20460;-39
2022/11/11 13:45:56;;;;;;;719.83;265.17;;;;;;;;;;5062795;28;20044;-43
2022/11/11 13:48:25;;;;;;;689.40;259.95;;;;;;;;;;5064236;28;20025;-42
2022/11/11 13:50:50;;;;;;;709.87;251.27;;;;;;;;;;5060599;28;20150;-44
2022/11/11 13:53:27;;;;;;;705.00;254.25;;;;;;;;;;5057594;28;20102;-42
2022/11/11 13:55:53;;;;;;;720.13;251.98;;;;;;;;;;5061959;28;20020;-40
2022/11/11 13:58:28;;;;;;;716.65;254.52;;;;;;;;;;5059040;28;20099;-42
2022/11/11 14:01:00;;;;;;;711.20;251.05;;;;;;;;;;5052366;28;20071;-43
2022/11/11 14:03:26;;;;;;;709.25;246.85;;;;;;;;;;5061917;28;20017;-43
2022/11/11 14:06:10;;;;;;;711.38;237.05;;;;;;;;;;5060224;28;20031;-46
2022/11/11 14:08:44;;;;;;;705.90;238.07;;;;;;;;;;5057846;28;20027;-44
2022/11/11 14:11:25;;;;;;;707.22;232.27;;;;;;;;;;5062190;28;20032;-44
2022/11/11 14:13:51;;;;;;;707.70;234.27;;;;;;;;;;5052435;28;20025;-46
2022/11/11 14:16:36;;;;;;;712.78;263.00;;;;;;;;;;5055821;28;20069;-43
2022/11/11 14:19:17;;;;;;;697.80;227.15;;;;;;;;;;5049348;28;20033;-42
2022/11/11 14:21:42;;;;;;;706.38;252.32;;;;;;;;;;5061334;28;20040;-44
2022/11/11 14:24:08;;;;;;;674.53;245.05;;;;;;;;;;5055409;28;20025;-42
2022/11/11 14:26:33;;;;;;;675.05;230.52;;;;;;;;;;5056479;28;20032;-44
2022/11/11 14:29:05;;;;;;;663.22;232.43;;;;;;;;;;5061102;28;20490;-44
2022/11/11 14:32:09;;;;;;;638.55;217.75;;;;;;;;;;5057713;28;20029;-41
2022/11/11 14:35:07;;;;;;;649.22;205.32;;;;;;;;;;5042394;28;20086;-44
2022/11/11 14:37:45;;;;;;;15.02;7.60;;;;;;;;;;5025214;28;20116;-43
2022/11/11 14:40:12;;;;;;;17.92;8.02;;;;;;;;;;5052672;28;20437;-43
2022/11/11 14:42:37;;;;;;;18.95;8.07;;;;;;;;;;5062472;28;20477;-39
2022/11/11 14:45:04;;;;;;;14.63;8.38;;;;;;;;;;5067762;28;20048;-42
2022/11/11 14:47:29;;;;;;;13.32;7.53;;;;;;;;;;5067246;28;20055;-42
2022/11/11 14:49:55;;;;;;;20.23;8.87;;;;;;;;;;5069718;28;20048;-39
2022/11/11 14:52:29;;;;;;;23.10;9.55;;;;;;;;;;5070514;28;20448;-42
2022/11/11 14:55:00;;;;;;;31.27;13.38;;;;;;;;;;5068360;28;20102;-42
2022/11/11 14:57:35;;;;;;;40.58;14.98;;;;;;;;;;5057008;28;20100;-40
2022/11/11 15:00:01;;;;;;;41.28;17.60;;;;;;;;;;5056404;28;20106;-42
2022/11/11 15:02:28;;;;;;;47.28;20.65;;;;;;;;;;5060641;28;20028;-41
2022/11/11 15:04:56;;;;;;;52.22;22.25;;;;;;;;;;5057630;28;20021;-38
2022/11/11 15:07:26;;;;;;;52.22;23.08;;;;;;;;;;5063547;28;20028;-40
2022/11/11 15:09:58;;;;;;;57.47;23.83;;;;;;;;;;5058840;28;20099;-42
2022/11/11 15:12:41;;;;;;;37.08;16.42;;;;;;;;;;5061391;28;20025;-42
2022/11/11 15:15:12;;;;;;;32.75;16.02;;;;;;;;;;5055870;28;20469;-43
2022/11/11 15:17:43;;;;;;;38.70;16.02;;;;;;;;;;5055366;28;20013;-41
2022/11/11 15:20:24;;;;;;;33.78;14.18;;;;;;;;;;5064903;28;20056;-41
2022/11/11 15:23:04;;;;;;;30.23;15.23;;;;;;;;;;5050865;28;20039;-41
2022/11/11 15:25:32;;;;;;;29.23;14.07;;;;;;;;;;5052426;28;20032;-40
2022/11/11 15:28:03;;;;;;;43.08;16.67;;;;;;;;;;5051245;28;20376;-40
2022/11/11 15:30:41;;;;;;;29.80;17.10;;;;;;;;;;5051730;28;20025;-42
2022/11/11 15:33:10;;;;;;;33.13;15.73;;;;;;;;;;5052909;28;20447;-41
2022/11/11 15:35:40;;;;;;;31.98;16.17;;;;;;;;;;5057203;28;20535;-42
2022/11/11 15:38:10;;;;;;;38.58;18.92;;;;;;;;;;5060121;28;20460;-43
2022/11/11 15:40:45;;;;;;;50.28;20.10;;;;;;;;;;5064957;28;20036;-40